KPIM/PIM METAR and TAF weather

Enter ICAO airport designator
Station Type Date Time Source
KPIM METAR 2021/07/28 20:55 UTC NOAA

KPIM 282055Z AUTO 01007KT 10SM SCT040 SCT060 34/23 A3001 RMK AO2 T03390228


Station Type Date Time Source
KPIM Decoded METAR 2021/07/28 20:55 UTC NOAA

Station name not available
Jul 28, 2021 - 04:55 PM EDT / 2021.07.28 2055 UTC
Wind: from the N (010 degrees) at 8 MPH (7 KT):0
Visibility: 10 mile(s):0
Sky conditions: partly cloudy
Temperature: 93.0 F (33.9 C)
Heat index: 101.8 F (38.8 C):1
Dew Point: 73.0 F (22.8 C)
Relative Humidity: 52%
Pressure (altimeter): 30.01 in. Hg (1016 hPa)
ob: KPIM 282055Z AUTO 01007KT 10SM SCT040 SCT060 34/23 A3001 RMK AO2 T03390228
cycle: 21

Station Type Date Time Source
KPIM TAF UTC NOAA

Error!

Example: see airport list